ΕΜΥ, Εθνική Μετεωρολογική Υπηρεσία - Δελτία Καιρού, Προγνώσεις

ΑΕΡΟΝΑΥΤΙΛΙΑ

GREEK AIRPORTS CODES

LGSA 160920Z 26012KT 9999 FEW020 SCT025 BKN080 14/11 Q1004=

EUROPEAN AIRPORTS CODES

TAF LGAV 160500Z 1606/1706 03015KT 9999 FEW020 BKN035 PROB40 TEMPO 1606/1621 5000 RA FEW018 BKN025 BKN070 PROB30 TEMPO 1606/1609 3000 SNRA BKN018 OVC070 BECMG 1615/1617 33015KT TEMPO 1615/1706 33015G25KT PROB30 TEMPO 1618/1624 3000 SNRA BKN018 OVC070=